createdAt,value
2018-08-04T00:01:52.115Z,6.83
2018-08-04T00:04:22.221Z,11.27
2018-08-04T00:06:57.518Z,6.87
2018-08-04T00:09:30.324Z,6.73
2018-08-04T00:12:03.524Z,6.60
2018-08-04T00:14:37.300Z,6.43
2018-08-04T00:17:11.345Z,13.70
2018-08-04T00:19:44.377Z,8.57
2018-08-04T00:22:14.325Z,5.70
2018-08-04T00:24:48.248Z,7.53
2018-08-04T00:27:19.347Z,6.77
2018-08-04T00:29:50.385Z,7.50
2018-08-04T00:32:21.968Z,6.90
2018-08-04T00:34:55.142Z,8.37
2018-08-04T00:37:27.412Z,7.80
2018-08-04T00:39:59.778Z,8.90
2018-08-04T00:42:32.203Z,6.73
2018-08-04T00:45:04.371Z,6.83
2018-08-04T00:47:35.864Z,9.90
2018-08-04T00:50:08.251Z,7.40
2018-08-04T00:52:38.673Z,7.37
2018-08-04T00:55:09.357Z,7.70
2018-08-04T00:57:39.964Z,6.90
2018-08-04T01:00:12.360Z,8.10
2018-08-04T01:02:43.169Z,6.97
2018-08-04T01:05:15.184Z,7.67
2018-08-04T01:07:46.166Z,7.83
2018-08-04T01:10:15.166Z,8.10
2018-08-04T01:12:48.686Z,7.33
2018-08-04T01:15:18.856Z,9.23
2018-08-04T01:17:50.279Z,8.93
2018-08-04T01:20:19.284Z,10.47
2018-08-04T01:22:48.286Z,8.83
2018-08-04T01:25:17.351Z,8.60
2018-08-04T01:27:46.262Z,8.60
2018-08-04T01:30:15.274Z,11.53
2018-08-04T01:32:44.256Z,8.40
2018-08-04T01:35:13.179Z,9.73
2018-08-04T01:37:42.175Z,7.70
2018-08-04T01:40:11.234Z,15.77
2018-08-04T01:42:40.196Z,8.20
2018-08-04T01:45:09.134Z,10.20
2018-08-04T01:47:38.062Z,7.87
2018-08-04T01:50:07.131Z,9.67
2018-08-04T01:52:36.271Z,12.73
2018-08-04T01:55:05.290Z,8.23
2018-08-04T01:57:34.400Z,9.17
2018-08-04T02:00:04.379Z,11.03
2018-08-04T02:02:33.377Z,10.57
2018-08-04T02:05:02.378Z,8.43
2018-08-04T02:07:31.439Z,8.07
2018-08-04T02:10:00.424Z,8.60
2018-08-04T02:12:29.597Z,10.93
2018-08-04T02:17:28.370Z,12.80
2018-08-04T02:19:57.406Z,10.00
2018-08-04T02:22:26.374Z,10.93
2018-08-04T02:24:55.434Z,10.73
2018-08-04T02:27:24.170Z,11.70
2018-08-04T02:29:53.000Z,12.77
2018-08-04T02:32:22.005Z,12.53
2018-08-04T02:34:50.947Z,10.53
2018-08-04T02:37:19.936Z,14.23
2018-08-04T02:39:48.872Z,9.63
2018-08-04T02:42:18.860Z,8.57
2018-08-04T02:44:47.800Z,9.80
2018-08-04T02:47:16.758Z,12.77
2018-08-04T02:49:51.807Z,10.50
2018-08-04T02:52:20.748Z,10.20
2018-08-04T02:54:49.825Z,10.57
2018-08-04T02:57:18.816Z,12.10
2018-08-04T02:59:47.519Z,10.87
2018-08-04T03:02:16.127Z,10.33
2018-08-04T03:04:44.929Z,11.80
2018-08-04T03:07:14.845Z,12.20
2018-08-04T03:09:43.775Z,11.40
2018-08-04T03:12:12.764Z,10.90
2018-08-04T03:14:41.570Z,15.63
2018-08-04T03:17:10.179Z,15.23
2018-08-04T03:19:38.789Z,13.13
2018-08-04T03:22:07.696Z,13.00
2018-08-04T03:24:36.931Z,10.47
2018-08-04T03:27:06.016Z,11.17
2018-08-04T03:29:35.216Z,10.63
2018-08-04T03:32:03.962Z,10.10
2018-08-04T03:34:32.899Z,11.50
2018-08-04T03:37:01.678Z,30.77
2018-08-04T03:39:30.512Z,10.53
2018-08-04T03:41:59.445Z,12.83
2018-08-04T03:44:28.416Z,15.00
2018-08-04T03:46:57.450Z,9.47
2018-08-04T03:49:26.313Z,12.10
2018-08-04T03:51:55.193Z,11.43
2018-08-04T03:54:24.118Z,9.30
2018-08-04T03:56:53.093Z,10.97
2018-08-04T03:59:22.187Z,10.20
2018-08-04T04:01:51.244Z,12.37
2018-08-04T04:04:20.153Z,10.60
2018-08-04T04:06:49.117Z,10.37
2018-08-04T04:09:18.150Z,18.23
2018-08-04T04:11:47.203Z,11.93
2018-08-04T04:14:15.943Z,11.10
2018-08-04T04:16:45.655Z,10.07
2018-08-04T04:19:15.306Z,13.03
2018-08-04T04:21:44.254Z,15.03
2018-08-04T04:24:13.254Z,11.20
2018-08-04T04:26:42.222Z,11.63
2018-08-04T04:29:11.158Z,12.27
2018-08-04T04:31:39.870Z,12.53
2018-08-04T04:34:08.694Z,11.50
2018-08-04T04:36:37.741Z,13.93
2018-08-04T04:39:07.143Z,12.73
2018-08-04T04:41:36.009Z,16.50
2018-08-04T04:44:05.236Z,12.80
2018-08-04T04:46:38.532Z,13.70
2018-08-04T04:49:09.230Z,10.63
2018-08-04T04:51:38.714Z,12.70
2018-08-04T04:54:07.667Z,11.10
2018-08-04T04:56:36.884Z,15.73
2018-08-04T04:59:05.955Z,13.90
2018-08-04T05:01:35.207Z,12.13
2018-08-04T05:04:04.410Z,11.97
2018-08-04T05:06:33.391Z,11.83
2018-08-04T05:09:04.751Z,11.77
2018-08-04T05:11:33.850Z,10.87
2018-08-04T05:14:02.959Z,14.57
2018-08-04T05:16:32.006Z,12.00
2018-08-04T05:19:01.036Z,11.13
2018-08-04T05:21:30.289Z,10.53
2018-08-04T05:23:59.022Z,13.13
2018-08-04T05:26:27.923Z,11.10
2018-08-04T05:28:56.986Z,15.10
2018-08-04T05:31:25.929Z,18.70
2018-08-04T05:33:55.018Z,10.67
2018-08-04T05:36:24.098Z,15.47
2018-08-04T05:38:53.063Z,12.90
2018-08-04T05:41:22.116Z,10.43
2018-08-04T05:43:51.109Z,10.00
2018-08-04T05:46:23.091Z,11.93
2018-08-04T05:48:52.559Z,13.63
2018-08-04T05:51:21.390Z,11.73
2018-08-04T05:53:50.125Z,14.23
2018-08-04T05:56:18.990Z,14.57
2018-08-04T05:58:47.923Z,11.03
2018-08-04T06:01:16.989Z,16.07
2018-08-04T06:03:45.958Z,11.40
2018-08-04T06:06:14.857Z,13.47
2018-08-04T06:08:43.928Z,11.20
2018-08-04T06:11:12.668Z,12.20
2018-08-04T06:13:41.580Z,15.63
2018-08-04T06:16:10.614Z,12.60
2018-08-04T06:18:39.663Z,12.10
2018-08-04T06:21:08.682Z,10.73
2018-08-04T06:23:37.680Z,10.43
2018-08-04T06:26:06.768Z,15.77
2018-08-04T06:28:35.990Z,9.60
2018-08-04T06:31:05.030Z,8.47
2018-08-04T06:33:34.503Z,15.20
2018-08-04T06:36:03.537Z,8.50
2018-08-04T06:38:32.614Z,16.17
2018-08-04T06:41:02.084Z,8.40
2018-08-04T06:43:31.116Z,7.40
2018-08-04T06:46:00.119Z,7.37
2018-08-04T06:48:30.101Z,8.80
2018-08-04T06:50:58.917Z,12.23
2018-08-04T06:53:27.856Z,9.13
2018-08-04T06:55:56.831Z,12.97
2018-08-04T06:58:25.838Z,7.73
2018-08-04T07:00:54.872Z,11.43
2018-08-04T07:03:23.961Z,6.40
2018-08-04T07:05:52.734Z,6.90
2018-08-04T07:08:21.563Z,6.23
2018-08-04T07:10:50.653Z,10.50
2018-08-04T07:13:19.636Z,11.53
2018-08-04T07:15:48.602Z,8.33
2018-08-04T07:18:17.446Z,7.67
2018-08-04T07:20:46.151Z,9.10
2018-08-04T07:23:15.026Z,7.40
2018-08-04T07:25:44.146Z,17.20
2018-08-04T07:28:13.077Z,7.80
2018-08-04T07:30:41.961Z,14.70
2018-08-04T07:33:11.830Z,9.63
2018-08-04T07:35:40.855Z,8.40
2018-08-04T07:38:09.838Z,8.50
2018-08-04T07:40:38.898Z,10.10
2018-08-04T07:43:09.007Z,8.50
2018-08-04T07:45:38.188Z,16.37
2018-08-04T07:48:07.228Z,11.73
2018-08-04T07:50:36.286Z,11.27
2018-08-04T07:53:05.910Z,8.43
2018-08-04T07:55:35.224Z,7.03
2018-08-04T07:58:04.235Z,12.73
2018-08-04T08:00:33.296Z,7.83
2018-08-04T08:03:02.359Z,10.33
2018-08-04T08:05:31.413Z,10.80
2018-08-04T08:08:00.551Z,8.27
2018-08-04T08:10:29.625Z,9.00
2018-08-04T08:12:58.306Z,12.27
2018-08-04T08:15:27.198Z,7.33
2018-08-04T08:17:56.238Z,11.53
2018-08-04T08:20:25.045Z,6.83
2018-08-04T08:22:53.714Z,7.60
2018-08-04T08:25:22.600Z,6.20
2018-08-04T08:27:51.349Z,7.20
2018-08-04T08:30:20.227Z,12.63
2018-08-04T08:32:49.276Z,9.03
2018-08-04T08:35:18.217Z,10.13
2018-08-04T08:37:47.274Z,6.83
2018-08-04T08:40:16.049Z,8.37
2018-08-04T08:42:46.852Z,14.50
2018-08-04T08:45:15.895Z,11.07
2018-08-04T08:47:46.141Z,5.93
2018-08-04T08:50:15.150Z,7.07
2018-08-04T08:52:44.202Z,7.87
2018-08-04T08:55:13.147Z,7.70
2018-08-04T08:57:42.231Z,6.93
2018-08-04T09:00:11.781Z,9.80
2018-08-04T09:02:40.751Z,6.13
2018-08-04T09:05:10.505Z,11.37
2018-08-04T09:07:39.843Z,10.17
2018-08-04T09:10:11.317Z,9.13
2018-08-04T09:12:40.500Z,7.63
2018-08-04T09:15:09.617Z,8.53
2018-08-04T09:17:38.690Z,8.17
2018-08-04T09:20:08.478Z,13.10
2018-08-04T09:22:37.532Z,7.60
2018-08-04T09:25:06.899Z,6.17
2018-08-04T09:27:35.893Z,6.80
2018-08-04T09:30:07.197Z,12.03
2018-08-04T09:32:36.166Z,7.80
2018-08-04T09:35:05.290Z,11.67
2018-08-04T09:37:34.231Z,14.30
2018-08-04T09:40:03.339Z,6.63
2018-08-04T09:42:32.420Z,8.63
2018-08-04T09:45:01.628Z,5.57
2018-08-04T09:47:31.508Z,12.63
2018-08-04T09:50:02.003Z,6.33
2018-08-04T09:52:31.137Z,7.00
2018-08-04T09:55:00.104Z,12.03
2018-08-04T09:57:29.194Z,7.37
2018-08-04T09:59:58.199Z,8.77
2018-08-04T10:02:27.337Z,6.57
2018-08-04T10:04:57.119Z,5.20
2018-08-04T10:07:26.239Z,8.93
2018-08-04T10:09:55.242Z,8.00
2018-08-04T10:12:24.243Z,5.23
2018-08-04T10:14:53.203Z,11.23
2018-08-04T10:17:22.317Z,5.80
2018-08-04T10:19:51.328Z,16.27
2018-08-04T10:22:21.438Z,5.97
2018-08-04T10:24:50.438Z,6.53
2018-08-04T10:27:19.423Z,8.97
2018-08-04T10:29:48.635Z,10.27
2018-08-04T10:32:17.654Z,4.60
2018-08-04T10:34:46.574Z,5.37
2018-08-04T10:37:15.670Z,12.67
2018-08-04T10:39:44.682Z,6.30
2018-08-04T10:42:13.866Z,10.57
2018-08-04T10:44:43.009Z,7.40
2018-08-04T10:47:12.001Z,5.37
2018-08-04T10:49:40.959Z,7.40
2018-08-04T10:52:10.040Z,12.60
2018-08-04T10:54:38.813Z,9.80
2018-08-04T10:57:07.693Z,7.50
2018-08-04T10:59:36.597Z,4.77
2018-08-04T11:02:07.588Z,5.83
2018-08-04T11:04:36.638Z,7.93
2018-08-04T11:07:05.374Z,7.80
2018-08-04T11:09:34.276Z,13.37
2018-08-04T11:12:03.361Z,8.50
2018-08-04T11:14:32.442Z,6.10
2018-08-04T11:17:01.559Z,8.10
2018-08-04T11:19:30.673Z,10.53
2018-08-04T11:21:59.643Z,9.03
2018-08-04T11:24:28.705Z,7.43
2018-08-04T11:26:57.459Z,5.47
2018-08-04T11:29:26.331Z,6.30
2018-08-04T11:31:55.251Z,11.03
2018-08-04T11:34:25.148Z,11.47
2018-08-04T11:36:53.923Z,8.83
2018-08-04T11:39:22.891Z,4.57
2018-08-04T11:41:51.813Z,4.97
2018-08-04T11:44:20.794Z,4.60
2018-08-04T11:46:49.845Z,8.00
2018-08-04T11:49:18.764Z,6.57
2018-08-04T11:51:48.775Z,4.87
2018-08-04T11:54:17.626Z,4.63
2018-08-04T11:56:46.693Z,8.07
2018-08-04T11:59:15.778Z,6.70
2018-08-04T12:01:44.742Z,5.47
2018-08-04T12:04:13.675Z,8.77
2018-08-04T12:06:42.678Z,11.93
2018-08-04T12:09:13.082Z,9.03
2018-08-04T12:11:42.541Z,6.23
2018-08-04T12:14:12.473Z,6.83
2018-08-04T12:16:41.449Z,7.13
2018-08-04T12:19:10.288Z,7.47
2018-08-04T12:21:39.220Z,9.40
2018-08-04T12:24:08.151Z,5.97
2018-08-04T12:26:36.961Z,6.10
2018-08-04T12:29:07.064Z,6.43
2018-08-04T12:31:36.204Z,11.03
2018-08-04T12:34:05.582Z,5.57
2018-08-04T12:36:34.734Z,11.53
2018-08-04T12:39:05.214Z,11.93
2018-08-04T12:41:35.580Z,12.77
2018-08-04T12:44:05.451Z,10.77
2018-08-04T12:46:34.452Z,12.40
2018-08-04T12:49:03.538Z,5.63
2018-08-04T12:51:32.544Z,6.70
2018-08-04T12:54:01.933Z,4.50
2018-08-04T12:56:31.160Z,11.80
2018-08-04T12:59:00.865Z,4.53
2018-08-04T13:01:30.335Z,6.40
2018-08-04T13:04:00.235Z,5.50
2018-08-04T13:06:29.520Z,7.17
2018-08-04T13:08:59.721Z,4.17
2018-08-04T13:11:29.199Z,3.83
2018-08-04T13:13:59.524Z,3.70
2018-08-04T13:16:28.311Z,2.47
2018-08-04T13:18:57.347Z,3.70
2018-08-04T13:21:26.580Z,5.73
2018-08-04T13:23:55.432Z,2.93
2018-08-04T13:26:24.382Z,6.03
2018-08-04T13:28:55.532Z,2.90
2018-08-04T13:31:25.669Z,3.13
2018-08-04T13:33:55.790Z,6.23
2018-08-04T13:36:24.958Z,3.13
2018-08-04T13:38:54.036Z,2.47
2018-08-04T13:41:23.103Z,11.50
2018-08-04T13:43:52.188Z,1.90
2018-08-04T13:46:21.118Z,3.37
2018-08-04T13:48:50.078Z,2.00
2018-08-04T13:51:19.118Z,3.30
2018-08-04T13:53:48.160Z,2.80
2018-08-04T13:56:17.211Z,2.33
2018-08-04T13:58:46.517Z,2.63
2018-08-04T14:01:15.531Z,6.20
2018-08-04T14:03:44.675Z,2.93
2018-08-04T14:06:13.747Z,6.60
2018-08-04T14:08:42.791Z,4.00
2018-08-04T14:11:12.420Z,4.43
2018-08-04T14:13:41.411Z,5.17
2018-08-04T14:16:10.385Z,3.70
2018-08-04T14:18:39.535Z,3.10
2018-08-04T14:21:08.487Z,4.63
2018-08-04T14:23:38.023Z,3.80
2018-08-04T14:26:07.413Z,1.80
2018-08-04T14:28:36.492Z,1.40
2018-08-04T14:31:05.294Z,3.40
2018-08-04T14:33:34.385Z,3.93
2018-08-04T14:36:03.273Z,1.40
2018-08-04T14:38:32.947Z,3.90
2018-08-04T14:41:01.988Z,3.27
2018-08-04T14:43:31.558Z,2.50
2018-08-04T14:46:01.927Z,1.93
2018-08-04T14:48:31.322Z,3.43
2018-08-04T14:51:00.434Z,1.40
2018-08-04T14:53:30.546Z,2.10
2018-08-04T14:56:00.016Z,3.60
2018-08-04T14:58:30.006Z,1.30
2018-08-04T15:00:59.154Z,4.90
2018-08-04T15:03:28.656Z,1.30
2018-08-04T15:05:57.958Z,3.60
2018-08-04T15:08:27.071Z,3.30
2018-08-04T15:10:56.158Z,1.73
2018-08-04T15:13:25.154Z,2.70
2018-08-04T15:15:54.144Z,5.27
2018-08-04T15:18:23.168Z,5.83
2018-08-04T15:20:53.370Z,2.70
2018-08-04T15:23:22.342Z,1.43
2018-08-04T15:25:51.830Z,1.80
2018-08-04T15:28:21.058Z,6.20
2018-08-04T15:30:50.102Z,1.33
2018-08-04T15:33:19.390Z,3.47
2018-08-04T15:35:48.746Z,2.60
2018-08-04T15:38:19.200Z,7.30
2018-08-04T15:40:48.242Z,2.90
2018-08-04T15:43:17.410Z,2.80
2018-08-04T15:45:46.731Z,1.87
2018-08-04T15:48:16.590Z,2.30
2018-08-04T15:50:46.423Z,1.90
2018-08-04T15:53:15.379Z,2.33
2018-08-04T15:55:45.130Z,2.30
2018-08-04T15:58:15.556Z,1.53
2018-08-04T16:00:44.497Z,3.47
2018-08-04T16:03:13.671Z,5.43
2018-08-04T16:05:42.563Z,1.60
2018-08-04T16:08:11.973Z,1.50
2018-08-04T16:10:41.215Z,3.23
2018-08-04T16:13:10.419Z,1.60
2018-08-04T16:15:40.317Z,3.47
2018-08-04T16:18:09.789Z,1.50
2018-08-04T16:20:41.044Z,2.40
2018-08-04T16:23:09.781Z,1.77
2018-08-04T16:25:38.686Z,6.87
2018-08-04T16:28:07.651Z,2.30
2018-08-04T16:30:36.770Z,4.60
2018-08-04T16:33:06.140Z,3.20
2018-08-04T16:35:35.351Z,3.30
2018-08-04T16:38:04.556Z,2.00
2018-08-04T16:40:34.119Z,1.73
2018-08-04T16:43:03.300Z,1.77
2018-08-04T16:45:32.232Z,3.10
2018-08-04T16:48:01.263Z,5.63
2018-08-04T16:50:30.362Z,8.23
2018-08-04T16:52:59.440Z,1.87
2018-08-04T16:55:29.141Z,1.73
2018-08-04T16:57:58.374Z,2.20
2018-08-04T17:00:27.851Z,1.97
2018-08-04T17:02:59.069Z,4.93
2018-08-04T17:05:28.615Z,2.90
2018-08-04T17:07:57.927Z,1.93
2018-08-04T17:10:26.945Z,8.53
2018-08-04T17:12:56.155Z,2.67
2018-08-04T17:15:25.266Z,7.03
2018-08-04T17:17:54.873Z,3.80
2018-08-04T17:20:24.390Z,4.17
2018-08-04T17:22:53.697Z,5.00
2018-08-04T17:25:22.818Z,2.27
2018-08-04T17:27:51.962Z,2.53
2018-08-04T17:30:20.714Z,2.13
2018-08-04T17:32:51.638Z,3.43
2018-08-04T17:35:21.035Z,3.37
2018-08-04T17:37:50.724Z,4.83
2018-08-04T17:40:20.280Z,2.53
2018-08-04T17:42:49.506Z,1.97
2018-08-04T17:45:18.980Z,2.23
2018-08-04T17:47:47.896Z,3.37
2018-08-04T17:50:16.634Z,1.80
2018-08-04T17:52:46.041Z,1.67
2018-08-04T17:55:15.145Z,1.80
2018-08-04T17:57:44.312Z,2.33
2018-08-04T18:00:13.505Z,2.00
2018-08-04T18:02:42.947Z,2.43
2018-08-04T18:05:11.982Z,2.83
2018-08-04T18:07:40.932Z,3.70
2018-08-04T18:10:09.728Z,2.07
2018-08-04T18:12:38.938Z,1.90
2018-08-04T18:15:08.066Z,9.33
2018-08-04T18:17:37.125Z,5.20
2018-08-04T18:20:06.371Z,2.53
2018-08-04T18:22:35.601Z,6.30
2018-08-04T18:25:05.131Z,1.80
2018-08-04T18:27:34.106Z,4.63
2018-08-04T18:30:03.612Z,3.23
2018-08-04T18:32:33.523Z,1.90
2018-08-04T18:35:02.634Z,1.90
2018-08-04T18:37:31.690Z,5.50
2018-08-04T18:40:01.714Z,6.67
2018-08-04T18:42:30.942Z,1.70
2018-08-04T18:45:00.240Z,3.70
2018-08-04T18:47:29.744Z,3.23
2018-08-04T18:49:59.267Z,4.20
2018-08-04T18:52:28.298Z,1.60
2018-08-04T18:54:57.501Z,7.17
2018-08-04T18:57:27.194Z,2.30
2018-08-04T18:59:56.429Z,1.73
2018-08-04T19:02:25.615Z,2.67
2018-08-04T19:04:55.009Z,3.47
2018-08-04T19:07:24.275Z,4.03
2018-08-04T19:09:53.673Z,3.77
2018-08-04T19:12:23.223Z,4.93
2018-08-04T19:14:53.067Z,5.13
2018-08-04T19:17:22.142Z,2.10
2018-08-04T19:19:51.156Z,1.60
2018-08-04T19:22:20.276Z,3.50
2018-08-04T19:24:49.496Z,5.50
2018-08-04T19:27:18.790Z,5.10
2018-08-04T19:29:48.604Z,2.63
2018-08-04T19:32:17.907Z,4.43
2018-08-04T19:34:47.398Z,2.97
2018-08-04T19:37:16.679Z,7.80
2018-08-04T19:39:46.147Z,4.90
2018-08-04T19:42:15.301Z,3.93
2018-08-04T19:44:44.654Z,2.23
2018-08-04T19:47:13.970Z,3.77
2018-08-04T19:49:43.666Z,2.30
2018-08-04T19:52:12.969Z,7.70
2018-08-04T19:54:42.069Z,7.17
2018-08-04T19:57:11.170Z,8.37
2018-08-04T19:59:40.584Z,3.97
2018-08-04T20:02:09.579Z,5.40
2018-08-04T20:04:38.598Z,2.70
2018-08-04T20:07:07.594Z,2.30
2018-08-04T20:09:36.631Z,2.10
2018-08-04T20:12:05.669Z,3.73
2018-08-04T20:14:34.583Z,3.03
2018-08-04T20:17:03.592Z,7.37
2018-08-04T20:19:32.558Z,1.80
2018-08-04T20:22:01.511Z,6.77
2018-08-04T20:24:30.538Z,4.70
2018-08-04T20:26:59.583Z,4.80
2018-08-04T20:29:29.621Z,2.10
2018-08-04T20:31:58.557Z,4.67
2018-08-04T20:34:28.044Z,2.37
2018-08-04T20:36:57.004Z,6.40
2018-08-04T20:39:25.923Z,4.03
2018-08-04T20:41:54.821Z,2.87
2018-08-04T20:44:23.791Z,5.43
2018-08-04T20:46:52.557Z,8.23
2018-08-04T20:49:21.102Z,6.17
2018-08-04T20:51:50.167Z,4.40
2018-08-04T20:54:19.182Z,3.10
2018-08-04T20:56:48.286Z,4.60
2018-08-04T20:59:17.255Z,5.17
2018-08-04T21:01:48.477Z,3.10
2018-08-04T21:04:18.004Z,3.00
2018-08-04T21:06:47.368Z,6.43
2018-08-04T21:09:16.561Z,3.67
2018-08-04T21:11:48.346Z,3.00
2018-08-04T21:14:17.669Z,4.60
2018-08-04T21:16:46.996Z,7.97
2018-08-04T21:19:15.996Z,3.80
2018-08-04T21:21:44.978Z,3.80
2018-08-04T21:24:13.984Z,4.13
2018-08-04T21:26:43.054Z,3.40
2018-08-04T21:29:12.079Z,4.00
2018-08-04T21:31:41.010Z,4.73
2018-08-04T21:34:10.967Z,7.33
2018-08-04T21:36:40.558Z,4.23
2018-08-04T21:39:13.262Z,6.20
2018-08-04T21:41:42.988Z,4.23
2018-08-04T21:44:12.351Z,4.73
2018-08-04T21:46:43.889Z,9.30
2018-08-04T21:49:13.352Z,5.00
2018-08-04T21:51:43.739Z,6.73
2018-08-04T21:54:13.793Z,7.20
2018-08-04T21:56:43.070Z,5.30
2018-08-04T21:59:12.190Z,5.40
2018-08-04T22:01:46.912Z,4.60
2018-08-04T22:04:15.770Z,5.57
2018-08-04T22:07:58.116Z,8.40
2018-08-04T22:10:27.674Z,5.07
2018-08-04T22:12:57.150Z,18.90
2018-08-04T22:15:26.496Z,10.83
2018-08-04T22:17:55.588Z,9.43
2018-08-04T22:20:26.131Z,7.50
2018-08-04T22:22:55.633Z,6.07
2018-08-04T22:25:26.862Z,6.00
2018-08-04T22:27:56.421Z,11.13
2018-08-04T22:30:25.784Z,9.53
2018-08-04T22:32:54.723Z,4.20
2018-08-04T22:35:23.900Z,5.37
2018-08-04T22:37:53.040Z,7.60
2018-08-04T22:40:22.272Z,5.67
2018-08-04T22:42:51.189Z,11.93
2018-08-04T22:45:28.076Z,11.83
2018-08-04T22:47:57.019Z,7.37
2018-08-04T22:50:25.898Z,5.27
2018-08-04T22:52:55.020Z,7.10
2018-08-04T22:55:24.239Z,4.60
2018-08-04T22:57:53.211Z,4.50
2018-08-04T23:00:22.227Z,5.60
2018-08-04T23:02:51.674Z,5.40
2018-08-04T23:05:20.714Z,13.20
2018-08-04T23:07:49.664Z,4.60
2018-08-04T23:10:18.769Z,9.37
2018-08-04T23:12:47.835Z,6.27
2018-08-04T23:15:16.888Z,6.60
2018-08-04T23:17:46.115Z,5.33
2018-08-04T23:20:15.070Z,5.27
2018-08-04T23:22:44.031Z,5.43
2018-08-04T23:25:13.464Z,4.60
2018-08-04T23:27:42.582Z,5.10
2018-08-04T23:30:11.593Z,5.97
2018-08-04T23:32:40.590Z,3.70
2018-08-04T23:35:09.977Z,8.30
2018-08-04T23:37:39.047Z,8.83
2018-08-04T23:40:07.966Z,8.87
2018-08-04T23:42:37.059Z,5.60
2018-08-04T23:45:06.337Z,4.13
2018-08-04T23:47:35.482Z,4.37
2018-08-04T23:50:04.922Z,5.73
2018-08-04T23:52:33.909Z,4.60
2018-08-04T23:55:03.185Z,4.53
2018-08-04T23:57:32.283Z,4.83
